BBC Gdansk — V2EB2 — position and weather

sailwx.info

Track history (hours):
 
Tides and Currents Weather Stations Pressure Air Temp Water Temp Dewpoint Dewpoint Depression Visibility Wind Speed Wind Dir Waves Ship Positions

BBC Gdansk

Last reported at 2018-Jun-16 04:50 UTC. Time now 2018-Jul-19 19:14 UTC.
Position N 29°14' W 094°33'.
Warning: this ship's position is 33 days out of date.

Length 122 m; draft 5.5 m.

Type: Ship. MMSI: 305372000.

Date/timePositionNaut miles runAvg speedWind from/ knotsBaromVisibWave heightAir tempDewpointWater temp
2018-Jun-16 04:50N 29°14' W 094°33'411.0
2018-Jun-16 04:30N 29°16' W 094°36'4 8.7
2018-Jun-16 04:01N 29°19' W 094°39'612.6
2018-Jun-16 03:31N 29°21' W 094°46'612.6
2018-Jun-16 03:01N 29°26' W 094°50'611.6
2018-Jun-16 02:31N 29°31' W 094°53'611.5
2018-Jun-16 02:01N 29°36' W 094°57'510.8
2018-Jun-16 01:30N 29°41' W 094°59'3 0.1
2018-Jun-14 14:00N 29°43' W 095°01'611.0
2018-Jun-14 13:30N 29°39' W 094°58'612.5
2018-Jun-14 13:00N 29°33' W 094°55'713.4
2018-Jun-14 12:30N 29°27' W 094°51'714.2
2018-Jun-14 12:00N 29°21' W 094°47'713.3
2018-Jun-14 11:30N 29°19' W 094°39'611.0
2018-Jun-14 10:58N 29°17' W 094°34'1 1.5
2018-Jun-14 10:30N 29°16' W 094°33'4 7.8
2018-Jun-14 10:00N 29°14' W 094°29'4 8.7
2018-Jun-14 09:29N 29°11' W 094°25'5 8.6
2018-Jun-14 08:57N 29°08' W 094°21'8 9.6
2018-Jun-14 08:08N 29°04' W 094°14'5 9.6
2018-Jun-14 07:37N 29°01' W 094°09'2 9.8
2018-Jun-14 07:25N 29°00' W 094°07'610.1
2018-Jun-14 06:49N 28°57' W 094°01'310.2
2018-Jun-14 06:28N 28°55' W 093°58'510.0
2018-Jun-14 05:59N 28°52' W 093°54'7 9.8
2018-Jun-14 05:19N 28°48' W 093°47'3 9.8
2018-Jun-14 05:00N 28°46' W 093°44'5 9.7
2018-Jun-14 04:27N 28°43' W 093°39'  
Track history (hours):
 
Tides and Currents Weather Stations Pressure Air Temp Water Temp Dewpoint Dewpoint Depression Visibility Wind Speed Wind Dir Waves Ship Positions

BBC Gdansk

Last reported at 2018-Jun-16 04:50 UTC. Time now 2018-Jul-19 19:14 UTC.
Position N 29°14' W 094°33'.
Warning: this ship's position is 33 days out of date.

Length 122 m; draft 5.5 m.

Type: Ship. MMSI: 305372000.

Date/timePositionNaut miles runAvg speedWind from/ knotsBaromVisibWave heightAir tempDewpointWater temp
2018-Jun-16 04:50N 29°14' W 094°33'411.0
2018-Jun-16 04:30N 29°16' W 094°36'4 8.7
2018-Jun-16 04:01N 29°19' W 094°39'612.6
2018-Jun-16 03:31N 29°21' W 094°46'612.6
2018-Jun-16 03:01N 29°26' W 094°50'611.6
2018-Jun-16 02:31N 29°31' W 094°53'611.5
2018-Jun-16 02:01N 29°36' W 094°57'510.8
2018-Jun-16 01:30N 29°41' W 094°59'3 0.1
2018-Jun-14 14:00N 29°43' W 095°01'611.0
2018-Jun-14 13:30N 29°39' W 094°58'612.5
2018-Jun-14 13:00N 29°33' W 094°55'713.4
2018-Jun-14 12:30N 29°27' W 094°51'714.2
2018-Jun-14 12:00N 29°21' W 094°47'713.3
2018-Jun-14 11:30N 29°19' W 094°39'611.0
2018-Jun-14 10:58N 29°17' W 094°34'1 1.5
2018-Jun-14 10:30N 29°16' W 094°33'4 7.8
2018-Jun-14 10:00N 29°14' W 094°29'4 8.7
2018-Jun-14 09:29N 29°11' W 094°25'5 8.6
2018-Jun-14 08:57N 29°08' W 094°21'8 9.6
2018-Jun-14 08:08N 29°04' W 094°14'5 9.6
2018-Jun-14 07:37N 29°01' W 094°09'2 9.8
2018-Jun-14 07:25N 29°00' W 094°07'610.1
2018-Jun-14 06:49N 28°57' W 094°01'310.2
2018-Jun-14 06:28N 28°55' W 093°58'510.0
2018-Jun-14 05:59N 28°52' W 093°54'7 9.8
2018-Jun-14 05:19N 28°48' W 093°47'3 9.8
2018-Jun-14 05:00N 28°46' W 093°44'5 9.7
2018-Jun-14 04:27N 28°43' W 093°39'  

Dump ship's entire track history